• Join FlightAware (Why Join?)
  • Login
  • US Flag 
Trick or treat! (Boo!!) 
06:26PM EDT


 

Airport Tracker/Info


-or-


 

Live Flight TrackerFlight Track Log ✈ N175HQ ✈ 10-Apr-2013 ✈ KMSN - KDCA

Flight Track Log - Related Links

Times and Time Zones

All times are in EDT time to prevent confusion due to time zone crossing. See the N175HQ flight status page for this flight to view local times or setup timezone preferences in your user account.

Time Position Orientation Groundspeed Altitude Reporting Facility
EDT Latitude Longitude Course Direction KTS MPH feet Rate Location/Type
06:23PM 43.1733 -89.3147 127° Southeast 152 175 3,400  Level Chicago Center
06:24PM 43.1369 -89.2494 127° Southeast 218 251 5,300 2,760 Climbing Chicago Center
06:25PM 43.0850 -89.1725 133° Southeast 261 300 9,100 2,820 Climbing Chicago Center
06:26PM 43.0239 -89.0856 134° Southeast 318 366 11,100 2,640 Climbing Chicago Center
06:27PM 42.9419 -88.9675 133° Southeast 364 419 14,600 3,120 Climbing Chicago Center
06:28PM 42.8697 -88.8647 134° Southeast 376 433 17,600 2,580 Climbing Chicago Center
06:29PM 42.7933 -88.7561 134° Southeast 393 452 20,000 2,280 Climbing Chicago Center
06:30PM 42.7156 -88.6467 134° Southeast 402 463 22,300 1,980 Climbing Chicago Center
06:31PM 42.6344 -88.5300 133° Southeast 423 487 24,200 1,860 Climbing Chicago Center
06:32PM 42.5500 -88.4097 134° Southeast 438 504 26,200 1,920 Climbing Chicago Center
06:33PM 42.4497 -88.2692 134° Southeast 445 512 28,200 1,620 Climbing Chicago Center
06:34PM 42.3614 -88.1472 134° Southeast 451 519 29,600 1,680 Climbing Chicago Center
06:35PM 42.2994 -87.9861 117° Southeast 476 548 31,700 1,620 Climbing Chicago Center
06:36PM 42.2753 -87.8083 100° East 479 551 33,000 600 Climbing Chicago Center
06:37PM 42.2500 -87.6294 101° East 484 557 33,000 960 Level Chicago Center
06:39PM 42.2014 -87.2764 100° East 478 550 36,100 1,260 Climbing Chicago Center
06:40PM 42.1775 -87.1075 101° East 465 535 37,000 420 Climbing Chicago Center
06:41PM 42.1511 -86.9308 101° East 477 549 37,000  Level Chicago Center
06:42PM 42.1211 -86.7208 101° East 478 550 37,000  Level Chicago Center
06:43PM 42.0992 -86.5633 101° East 475 547 37,000  Level Chicago Center
06:44PM 42.0736 -86.3936 101° East 466 536 37,000  Level Chicago Center
06:45PM 42.0483 -86.2225 101° East 467 537 37,000  Level Chicago Center
06:46PM 42.0161 -86.0150 102° East 473 544 37,000  Level Chicago Center
06:47PM 41.9897 -85.8433 102° East 469 540 37,000 540 Level Chicago Center
06:48PM 41.9622 -85.6692 102° East 474 545 38,200 900 Climbing Chicago Center
06:49PM 41.9361 -85.4975 102° East 468 539 38,900 360 Climbing Chicago Center
06:50PM 41.9092 -85.3219 102° East 473 544 39,000  Climbing Chicago Center
06:52PM 41.8789 -85.1128 101° East 467 537 39,000  Level Cleveland Center
06:53PM 41.8464 -84.9264 103° East 467 537 39,000  Level Cleveland Center
06:54PM 41.8172 -84.7544 103° East 472 543 39,000  Level Cleveland Center
06:55PM 41.7919 -84.5911 102° East 466 536 39,000  Level Cleveland Center
06:56PM 41.7622 -84.4250 103° East 453 521 39,000  Level Cleveland Center
06:57PM 41.7322 -84.2592 104° East 453 521 39,000  Level Cleveland Center
06:58PM 41.7039 -84.0961 103° East 453 521 39,000  Level Cleveland Center
06:59PM 41.6753 -83.9361 103° East 453 521 39,000  Level Cleveland Center
07:00PM 41.6467 -83.7678 103° East 453 521 39,000  Level Cleveland Center
07:01PM 41.6197 -83.6081 103° East 453 521 39,000  Level Cleveland Center
07:02PM 41.5906 -83.4428 103° East 453 521 39,000  Level Cleveland Center
07:03PM 41.5614 -83.2806 103° East 453 521 39,000  Level Cleveland Center
07:04PM 41.5356 -83.1297 103° East 453 521 39,000  Level Cleveland Center
07:05PM 41.5036 -82.9622 104° East 453 521 39,000  Level Cleveland Center
07:06PM 41.4739 -82.7919 103° East 459 528 39,000  Level Cleveland Center
07:07PM 41.4397 -82.6078 104° East 464 534 39,000  Level Cleveland Center
07:08PM 41.4092 -82.4408 104° East 464 534 39,000  Level Cleveland Center
07:09PM 41.3764 -82.2683 104° East 470 541 39,000  Level Cleveland Center
07:10PM 41.3447 -82.1431 109° East 462 532 39,000  Level Cleveland Center
07:11PM 41.3033 -81.9597 107° East 462 532 39,000  Level Cleveland Center
07:12PM 41.2675 -81.8014 107° East 462 532 39,000  Level Cleveland Center
07:13PM 41.2233 -81.6350 109° East 462 532 39,000  Level Cleveland Center
07:14PM 41.1811 -81.4658 108° East 475 547 39,000  Level Cleveland Center
07:15PM 41.1303 -81.2750 109° East 491 565 39,000  Level Cleveland Center
07:16PM 41.0853 -81.1092 110° East 491 565 39,000  Level Cleveland Center
07:17PM 41.0003 -81.0039 137° Southeast 463 533 39,000  Level Cleveland Center
07:18PM 40.8794 -80.9619 165° South 435 501 39,000  Level Cleveland Center
07:19PM 40.7567 -80.9422 173° South 426 490 39,000  Level Cleveland Center
07:20PM 40.6336 -80.9197 172° South 440 506 39,000  Level Cleveland Center
07:21PM 40.5086 -80.9000 173° South 452 520 39,000  Level Cleveland Center
07:22PM 40.3817 -80.8775 172° South 452 520 39,000  Level Cleveland Center
07:23PM 40.2522 -80.8525 172° South 467 537 39,000  Level Cleveland Center
07:24PM 40.1419 -80.7650 149° Southeast 457 526 39,000  Level Cleveland Center
07:25PM 40.0339 -80.6347 137° Southeast 478 550 39,000 -360 Level Cleveland Center
07:26PM 39.9317 -80.5261 141° Southeast 478 550 38,300 -840 Descending Cleveland Center
07:27PM 39.8336 -80.4128 138° Southeast 473 544 37,400 -1,020 Descending Cleveland Center
07:28PM 39.7333 -80.3050 140° Southeast 479 551 36,300 -1,140 Descending Cleveland Center
07:29PM 39.6061 -80.1653 140° Southeast 488 562 34,800 -1,200 Descending Washington Center
07:30PM 39.5081 -80.0569 140° Southeast 478 550 33,600 -1,200 Descending Washington Center
07:31PM 39.4119 -79.9489 139° Southeast 473 544 32,400 -1,260 Descending Washington Center
07:32PM 39.3181 -79.8358 137° Southeast 473 544 31,100 -720 Descending Washington Center
07:33PM 39.2847 -79.6514 103° East 448 516 31,000 -60 Descending Washington Center
07:34PM 39.2714 -79.4844 96° East 448 516 31,000 -900 Level Washington Center
07:35PM 39.2583 -79.3122 96° East 458 527 29,200 -1,800 Descending Washington Center
07:36PM 39.2375 -79.1692 101° East 463 533 27,400 -1,500 Descending Washington Center
07:37PM 39.2256 -79.0106 96° East 457 526 26,300 -1,500 Descending Washington Center
07:38PM 39.2111 -78.8544 97° East 450 518 24,400 -2,160 Descending Washington Center
07:39PM 39.1964 -78.7011 97° East 445 512 22,000 -2,340 Descending Washington Center
07:40PM 39.1811 -78.5558 98° East 430 495 19,800 -2,220 Descending Washington Center
07:41PM 39.1661 -78.4081 97° East 417 480 17,600 -1,800 Descending Washington Center
07:42PM 39.1381 -78.2678 104° East 409 471 16,200 -1,260 Descending Washington Center
07:43PM 39.1033 -78.1300 108° East 404 465 15,100 -1,200 Descending Washington Center
07:44PM 39.0708 -77.9978 108° East 393 452 13,900 -1,260 Descending Washington Center
07:45PM 39.0339 -77.8522 108° East 388 447 12,600 -1,500 Descending Washington Center
07:46PM 39.0008 -77.7258 109° East 388 447 11,000 -1,020 Descending Washington Center
07:47PM 38.9714 -77.6100 108° East 355 409 10,600 -780 Descending Washington Center
07:47PM 38.9667 -77.5833 103° East 329 379 10,000 -1,800 Descending Potomac TRACON
07:48PM 38.9167 -77.4667 119° Southeast 311 358 8,100 -1,140 Descending Potomac TRACON
07:49PM 38.8833 -77.3833 117° Southeast 243 280 7,700 -600 Descending Potomac TRACON
07:50PM 38.8667 -77.3000 104° East 232 267 7,000 -360 Descending Potomac TRACON
07:51PM 38.9000 -77.2667 38° Northeast 235 270 7,000 -180 Level Potomac TRACON
07:52PM 38.9500 -77.3000 333° Northwest 203 234 6,700 -540 Descending Potomac TRACON
07:53PM 38.9833 -77.3500 311° West 209 241 6,000 -600 Descending Potomac TRACON
07:54PM 39.0333 -77.3500 360° North 229 264 5,600 -660 Descending Potomac TRACON
07:55PM 39.0667 -77.2833 57° Northeast 212 244 4,700 -900 Descending Potomac TRACON
07:56PM 39.0333 -77.2333 131° Southeast 175 201 3,800 -780 Descending Potomac TRACON
07:57PM 39.0000 -77.1833 131° Southeast 175 201 3,300 -600 Descending Potomac TRACON
07:58PM 38.9667 -77.1500 142° Southeast 168 193 2,600 -840 Descending Potomac TRACON
07:59PM 38.9333 -77.1167 142° Southeast 160 184 1,700 -900 Descending Potomac TRACON
08:00PM 38.9000 -77.0833 142° Southeast 155 178 1,000 -600 Descending Potomac TRACON
08:01PM 38.8833 -77.0500 123° Southeast 129 148 500 -480 Descending Potomac TRACON